DAL9Z KBHM-KSAV
Flight info
| Callsign | DAL9Z |
|---|---|
| Flight time | 0h 56m |
| Altitude | 31000 |
| Route | CHEHA DBN LOTTS |
| Aircraft | A320/M-SDE3FGHIRWY/LB1 |
Departure
| Time | 2026-05-05 19:15 |
|---|---|
| Airport | Birmingham-Shuttlesworth International Airport (KBHM) |
Arrival
| Time | 2026-05-05 20:12 |
|---|---|
| Airport | Savannah Hilton Head International Airport (KSAV) |
| Time | Latitude | Longitude | Altitude | Speed | Heading |
|---|---|---|---|---|---|
| 2026-05-05 18:53 | 33.56167 | -86.75411 | 608 ft | 0 kts | 168° |
| 2026-05-05 18:55 | 33.56168 | -86.75411 | 608 ft | 0 kts | 168° |
| 2026-05-05 19:04 | 33.56170 | -86.75411 | 617 ft | 2 kts | 168° |
| 2026-05-05 19:04 | 33.56186 | -86.75416 | 623 ft | 2 kts | 171° |
| 2026-05-05 19:05 | 33.56202 | -86.75419 | 612 ft | 2 kts | 172° |
| 2026-05-05 19:05 | 33.56219 | -86.75422 | 621 ft | 2 kts | 174° |
| 2026-05-05 19:05 | 33.56235 | -86.75423 | 621 ft | 2 kts | 180° |
| 2026-05-05 19:05 | 33.56252 | -86.75422 | 619 ft | 2 kts | 193° |
| 2026-05-05 19:06 | 33.56267 | -86.75416 | 614 ft | 2 kts | 225° |
| 2026-05-05 19:06 | 33.56275 | -86.75404 | 614 ft | 1 kts | 240° |
| 2026-05-05 19:06 | 33.56276 | -86.75402 | 614 ft | 0 kts | 239° |
| 2026-05-05 19:08 | 33.56276 | -86.75403 | 608 ft | 0 kts | 239° |
| 2026-05-05 19:08 | 33.56276 | -86.75412 | 622 ft | 4 kts | 273° |
| 2026-05-05 19:08 | 33.56309 | -86.75442 | 614 ft | 6 kts | 327° |
| 2026-05-05 19:09 | 33.56344 | -86.75451 | 617 ft | 6 kts | 20° |
| 2026-05-05 19:09 | 33.56375 | -86.75399 | 612 ft | 9 kts | 56° |
| 2026-05-05 19:09 | 33.56408 | -86.75342 | 614 ft | 8 kts | 55° |
| 2026-05-05 19:09 | 33.56439 | -86.75288 | 617 ft | 10 kts | 55° |
| 2026-05-05 19:10 | 33.56478 | -86.75219 | 607 ft | 10 kts | 55° |
| 2026-05-05 19:10 | 33.56523 | -86.75143 | 615 ft | 11 kts | 55° |
| 2026-05-05 19:10 | 33.56569 | -86.75062 | 617 ft | 15 kts | 55° |
| 2026-05-05 19:10 | 33.56601 | -86.74944 | 607 ft | 14 kts | 93° |
| 2026-05-05 19:11 | 33.56614 | -86.74839 | 615 ft | 13 kts | 62° |
| 2026-05-05 19:11 | 33.56675 | -86.74733 | 609 ft | 15 kts | 55° |
| 2026-05-05 19:11 | 33.56731 | -86.74637 | 617 ft | 14 kts | 54° |
| 2026-05-05 19:11 | 33.56797 | -86.74525 | 618 ft | 22 kts | 55° |
| 2026-05-05 19:12 | 33.56884 | -86.74375 | 619 ft | 21 kts | 56° |
| 2026-05-05 19:12 | 33.56963 | -86.74236 | 613 ft | 19 kts | 56° |
| 2026-05-05 19:12 | 33.57036 | -86.74107 | 617 ft | 18 kts | 55° |
| 2026-05-05 19:12 | 33.57103 | -86.73994 | 611 ft | 16 kts | 54° |
| 2026-05-05 19:13 | 33.57162 | -86.73892 | 612 ft | 14 kts | 55° |
| 2026-05-05 19:13 | 33.57227 | -86.73835 | 612 ft | 11 kts | 356° |
| 2026-05-05 19:13 | 33.57288 | -86.73883 | 617 ft | 10 kts | 324° |
| 2026-05-05 19:13 | 33.57336 | -86.73925 | 612 ft | 6 kts | 324° |
| 2026-05-05 19:14 | 33.57335 | -86.73944 | 614 ft | 0 kts | 232° |
| 2026-05-05 19:14 | 33.57334 | -86.73944 | 614 ft | 0 kts | 232° |
| 2026-05-05 19:14 | 33.57280 | -86.74032 | 607 ft | 45 kts | 234° |
| 2026-05-05 19:15 | 33.56971 | -86.74570 | 620 ft | 109 kts | 236° |
| 2026-05-05 19:15 | 33.56439 | -86.75490 | 618 ft | 158 kts | 236° |
| 2026-05-05 19:15 | 33.55796 | -86.76599 | 1199 ft | 158 kts | 230° |
| 2026-05-05 19:15 | 33.55153 | -86.77669 | 1990 ft | 161 kts | 227° |
| 2026-05-05 19:16 | 33.54424 | -86.78790 | 2378 ft | 181 kts | 222° |
| 2026-05-05 19:16 | 33.53270 | -86.79502 | 2638 ft | 200 kts | 186° |
| 2026-05-05 19:16 | 33.51866 | -86.79062 | 3003 ft | 227 kts | 144° |
| 2026-05-05 19:16 | 33.50874 | -86.77462 | 3525 ft | 255 kts | 116° |
| 2026-05-05 19:17 | 33.50272 | -86.75415 | 4275 ft | 267 kts | 108° |
| 2026-05-05 19:17 | 33.49818 | -86.73227 | 5163 ft | 274 kts | 106° |
| 2026-05-05 19:17 | 33.49392 | -86.70973 | 5991 ft | 281 kts | 107° |
| 2026-05-05 19:17 | 33.48942 | -86.68663 | 6749 ft | 288 kts | 107° |
| 2026-05-05 19:18 | 33.48452 | -86.66307 | 7529 ft | 295 kts | 108° |
| 2026-05-05 19:18 | 33.47923 | -86.63905 | 8261 ft | 302 kts | 108° |
| 2026-05-05 19:18 | 33.47355 | -86.61420 | 8997 ft | 308 kts | 109° |
| 2026-05-05 19:18 | 33.46772 | -86.58920 | 9718 ft | 315 kts | 109° |
| 2026-05-05 19:19 | 33.46168 | -86.56369 | 10312 ft | 326 kts | 109° |
| 2026-05-05 19:19 | 33.45524 | -86.53664 | 10515 ft | 349 kts | 108° |
| 2026-05-05 19:19 | 33.44837 | -86.50780 | 10839 ft | 367 kts | 108° |
| 2026-05-05 19:19 | 33.44134 | -86.47814 | 11449 ft | 374 kts | 108° |
| 2026-05-05 19:20 | 33.43422 | -86.44799 | 12122 ft | 379 kts | 108° |
| 2026-05-05 19:20 | 33.42698 | -86.41739 | 12812 ft | 384 kts | 107° |
| 2026-05-05 19:20 | 33.41965 | -86.38645 | 13495 ft | 389 kts | 107° |
| 2026-05-05 19:20 | 33.41224 | -86.35518 | 14132 ft | 393 kts | 107° |
| 2026-05-05 19:21 | 33.40474 | -86.32353 | 14730 ft | 397 kts | 107° |
| 2026-05-05 19:21 | 33.39714 | -86.29155 | 15328 ft | 401 kts | 107° |
| 2026-05-05 19:21 | 33.38936 | -86.25887 | 15928 ft | 405 kts | 107° |
| 2026-05-05 19:21 | 33.38158 | -86.22628 | 16526 ft | 409 kts | 107° |
| 2026-05-05 19:22 | 33.37373 | -86.19343 | 17121 ft | 413 kts | 107° |
| 2026-05-05 19:22 | 33.36597 | -86.16018 | 17700 ft | 417 kts | 106° |
| 2026-05-05 19:22 | 33.35834 | -86.12649 | 18275 ft | 421 kts | 105° |
| 2026-05-05 19:22 | 33.35074 | -86.09237 | 18756 ft | 426 kts | 105° |
| 2026-05-05 19:23 | 33.34313 | -86.05807 | 19232 ft | 430 kts | 105° |
| 2026-05-05 19:23 | 33.33534 | -86.02329 | 19709 ft | 435 kts | 105° |
| 2026-05-05 19:23 | 33.32742 | -85.98821 | 20153 ft | 440 kts | 105° |
| 2026-05-05 19:23 | 33.31936 | -85.95275 | 20637 ft | 444 kts | 105° |
| 2026-05-05 19:24 | 33.31118 | -85.91692 | 21096 ft | 449 kts | 105° |
| 2026-05-05 19:24 | 33.30293 | -85.88081 | 21580 ft | 453 kts | 105° |
| 2026-05-05 19:24 | 33.29450 | -85.84387 | 22041 ft | 458 kts | 105° |
| 2026-05-05 19:24 | 33.28606 | -85.80697 | 22487 ft | 462 kts | 105° |
| 2026-05-05 19:25 | 33.27755 | -85.76974 | 22936 ft | 466 kts | 105° |
| 2026-05-05 19:25 | 33.26892 | -85.73214 | 23361 ft | 471 kts | 105° |
| 2026-05-05 19:25 | 33.26021 | -85.69423 | 23747 ft | 475 kts | 105° |
| 2026-05-05 19:25 | 33.25144 | -85.65603 | 24104 ft | 478 kts | 105° |
| 2026-05-05 19:26 | 33.24262 | -85.61766 | 24470 ft | 481 kts | 105° |
| 2026-05-05 19:26 | 33.23372 | -85.57902 | 24829 ft | 484 kts | 105° |
| 2026-05-05 19:26 | 33.22474 | -85.54014 | 25184 ft | 487 kts | 105° |
| 2026-05-05 19:26 | 33.21572 | -85.50127 | 25514 ft | 489 kts | 105° |
| 2026-05-05 19:27 | 33.20653 | -85.46185 | 25858 ft | 492 kts | 105° |
| 2026-05-05 19:27 | 33.19733 | -85.42240 | 26213 ft | 495 kts | 105° |
| 2026-05-05 19:27 | 33.18810 | -85.38272 | 26549 ft | 497 kts | 105° |
| 2026-05-05 19:27 | 33.17884 | -85.34287 | 26875 ft | 500 kts | 105° |
| 2026-05-05 19:28 | 33.16954 | -85.30284 | 27196 ft | 502 kts | 105° |
| 2026-05-05 19:28 | 33.16015 | -85.26252 | 27532 ft | 505 kts | 105° |
| 2026-05-05 19:28 | 33.15053 | -85.22150 | 27861 ft | 507 kts | 105° |
| 2026-05-05 19:28 | 33.14096 | -85.18088 | 28176 ft | 510 kts | 105° |
| 2026-05-05 19:29 | 33.13135 | -85.14019 | 28479 ft | 512 kts | 105° |
| 2026-05-05 19:29 | 33.12166 | -85.09908 | 28786 ft | 514 kts | 105° |
| 2026-05-05 19:29 | 33.11199 | -85.05795 | 29072 ft | 517 kts | 105° |
| 2026-05-05 19:29 | 33.10225 | -85.01655 | 29358 ft | 519 kts | 105° |
| 2026-05-05 19:30 | 33.09246 | -84.97503 | 29635 ft | 521 kts | 105° |
| 2026-05-05 19:30 | 33.08260 | -84.93334 | 29901 ft | 524 kts | 105° |
| 2026-05-05 19:30 | 33.07265 | -84.89147 | 30148 ft | 526 kts | 105° |
| 2026-05-05 19:30 | 33.06266 | -84.84949 | 30363 ft | 528 kts | 105° |
| 2026-05-05 19:31 | 33.05263 | -84.80739 | 30552 ft | 530 kts | 105° |
| 2026-05-05 19:31 | 33.04251 | -84.76493 | 30745 ft | 533 kts | 105° |
| 2026-05-05 19:31 | 33.03237 | -84.72237 | 30940 ft | 535 kts | 104° |
| 2026-05-05 19:31 | 33.02219 | -84.67973 | 31040 ft | 534 kts | 104° |
| 2026-05-05 19:32 | 33.01213 | -84.63779 | 31072 ft | 521 kts | 104° |
| 2026-05-05 19:32 | 33.00203 | -84.59590 | 31063 ft | 517 kts | 104° |
| 2026-05-05 19:32 | 32.98229 | -84.51389 | 31074 ft | 514 kts | 104° |
| 2026-05-05 19:33 | 32.96260 | -84.43215 | 31071 ft | 514 kts | 104° |
| 2026-05-05 19:33 | 32.94602 | -84.36359 | 31081 ft | 513 kts | 104° |
| 2026-05-05 19:34 | 32.92621 | -84.28203 | 31074 ft | 513 kts | 105° |
| 2026-05-05 19:35 | 32.89652 | -84.15994 | 31071 ft | 512 kts | 105° |
| 2026-05-05 19:35 | 32.87661 | -84.07864 | 31068 ft | 511 kts | 105° |
| 2026-05-05 19:36 | 32.85657 | -83.99764 | 31047 ft | 511 kts | 105° |
| 2026-05-05 19:36 | 32.83656 | -83.91605 | 31046 ft | 510 kts | 105° |
| 2026-05-05 19:37 | 32.81669 | -83.83507 | 31050 ft | 510 kts | 105° |
| 2026-05-05 19:37 | 32.79663 | -83.75418 | 31046 ft | 510 kts | 105° |
| 2026-05-05 19:38 | 32.77656 | -83.67324 | 31050 ft | 510 kts | 105° |
| 2026-05-05 19:38 | 32.75639 | -83.59240 | 31056 ft | 510 kts | 105° |
| 2026-05-05 19:39 | 32.73616 | -83.51168 | 31019 ft | 510 kts | 105° |
| 2026-05-05 19:39 | 32.72606 | -83.47135 | 30776 ft | 507 kts | 105° |
| 2026-05-05 19:39 | 32.71606 | -83.43142 | 30544 ft | 504 kts | 105° |
| 2026-05-05 19:39 | 32.70607 | -83.39160 | 30308 ft | 501 kts | 105° |
| 2026-05-05 19:40 | 32.69616 | -83.35208 | 30074 ft | 499 kts | 105° |
| 2026-05-05 19:40 | 32.68627 | -83.31270 | 29798 ft | 496 kts | 105° |
| 2026-05-05 19:40 | 32.67641 | -83.27360 | 29532 ft | 494 kts | 105° |
| 2026-05-05 19:40 | 32.66652 | -83.23459 | 29265 ft | 492 kts | 105° |
| 2026-05-05 19:41 | 32.65667 | -83.19580 | 28995 ft | 490 kts | 105° |
| 2026-05-05 19:41 | 32.64675 | -83.15670 | 28732 ft | 487 kts | 105° |
| 2026-05-05 19:41 | 32.63700 | -83.11828 | 28468 ft | 485 kts | 105° |
| 2026-05-05 19:41 | 32.62728 | -83.08003 | 28205 ft | 483 kts | 105° |
| 2026-05-05 19:42 | 32.61763 | -83.04204 | 27940 ft | 480 kts | 105° |
| 2026-05-05 19:42 | 32.60801 | -83.00421 | 27363 ft | 478 kts | 105° |
| 2026-05-05 19:42 | 32.59842 | -82.96654 | 26769 ft | 477 kts | 105° |
| 2026-05-05 19:42 | 32.58885 | -82.92906 | 26177 ft | 475 kts | 106° |
| 2026-05-05 19:43 | 32.57913 | -82.89110 | 25527 ft | 475 kts | 106° |
| 2026-05-05 19:43 | 32.56954 | -82.85364 | 24975 ft | 473 kts | 106° |
| 2026-05-05 19:43 | 32.56007 | -82.81658 | 24497 ft | 469 kts | 105° |
| 2026-05-05 19:43 | 32.55107 | -82.77953 | 23998 ft | 465 kts | 105° |
| 2026-05-05 19:44 | 32.54263 | -82.74267 | 23480 ft | 462 kts | 104° |
| 2026-05-05 19:44 | 32.53452 | -82.70597 | 22955 ft | 458 kts | 104° |
| 2026-05-05 19:44 | 32.52654 | -82.66956 | 22462 ft | 454 kts | 104° |
| 2026-05-05 19:44 | 32.51854 | -82.63357 | 21964 ft | 451 kts | 104° |
| 2026-05-05 19:45 | 32.51044 | -82.59787 | 21468 ft | 448 kts | 104° |
| 2026-05-05 19:45 | 32.50223 | -82.56236 | 21032 ft | 443 kts | 104° |
| 2026-05-05 19:45 | 32.49405 | -82.52732 | 20534 ft | 440 kts | 105° |
| 2026-05-05 19:45 | 32.48594 | -82.49270 | 20175 ft | 433 kts | 104° |
| 2026-05-05 19:46 | 32.47803 | -82.45870 | 19423 ft | 425 kts | 104° |
| 2026-05-05 19:46 | 32.47035 | -82.42549 | 18950 ft | 414 kts | 104° |
| 2026-05-05 19:46 | 32.46278 | -82.39267 | 18457 ft | 414 kts | 104° |
| 2026-05-05 19:46 | 32.45509 | -82.35938 | 17920 ft | 412 kts | 104° |
| 2026-05-05 19:47 | 32.44755 | -82.32692 | 17426 ft | 402 kts | 104° |
| 2026-05-05 19:47 | 32.44021 | -82.29552 | 16974 ft | 393 kts | 105° |
| 2026-05-05 19:47 | 32.43291 | -82.26439 | 16509 ft | 392 kts | 105° |
| 2026-05-05 19:47 | 32.42564 | -82.23337 | 16055 ft | 390 kts | 105° |
| 2026-05-05 19:48 | 32.41842 | -82.20251 | 15598 ft | 389 kts | 105° |
| 2026-05-05 19:48 | 32.41120 | -82.17172 | 15140 ft | 388 kts | 105° |
| 2026-05-05 19:48 | 32.40401 | -82.14104 | 14670 ft | 386 kts | 105° |
| 2026-05-05 19:48 | 32.39686 | -82.11055 | 14224 ft | 385 kts | 105° |
| 2026-05-05 19:49 | 32.38974 | -82.08020 | 13825 ft | 381 kts | 105° |
| 2026-05-05 19:49 | 32.38496 | -82.05981 | 13517 ft | 379 kts | 105° |
| 2026-05-05 19:49 | 32.37563 | -82.02028 | 12816 ft | 375 kts | 106° |
| 2026-05-05 19:49 | 32.36863 | -81.99090 | 12385 ft | 368 kts | 106° |
| 2026-05-05 19:50 | 32.36155 | -81.96133 | 11867 ft | 368 kts | 106° |
| 2026-05-05 19:50 | 32.35462 | -81.93234 | 11414 ft | 365 kts | 106° |
| 2026-05-05 19:50 | 32.34779 | -81.90352 | 10973 ft | 363 kts | 106° |
| 2026-05-05 19:50 | 32.34103 | -81.87479 | 10465 ft | 362 kts | 107° |
| 2026-05-05 19:51 | 32.33208 | -81.84738 | 10177 ft | 352 kts | 120° |
| 2026-05-05 19:51 | 32.31994 | -81.82301 | 10060 ft | 339 kts | 123° |
| 2026-05-05 19:51 | 32.30802 | -81.79943 | 9938 ft | 327 kts | 123° |
| 2026-05-05 19:51 | 32.29656 | -81.77676 | 9785 ft | 316 kts | 123° |
| 2026-05-05 19:52 | 32.28540 | -81.75479 | 9250 ft | 309 kts | 123° |
| 2026-05-05 19:52 | 32.27435 | -81.73321 | 8567 ft | 306 kts | 123° |
| 2026-05-05 19:52 | 32.26328 | -81.71168 | 7803 ft | 306 kts | 123° |
| 2026-05-05 19:52 | 32.25243 | -81.69054 | 7296 ft | 295 kts | 123° |
| 2026-05-05 19:53 | 32.24220 | -81.67056 | 7167 ft | 274 kts | 123° |
| 2026-05-05 19:53 | 32.23255 | -81.65172 | 6672 ft | 269 kts | 123° |
| 2026-05-05 19:53 | 32.22292 | -81.63303 | 6252 ft | 258 kts | 123° |
| 2026-05-05 19:53 | 32.21386 | -81.61543 | 5883 ft | 248 kts | 123° |
| 2026-05-05 19:54 | 32.20662 | -81.60147 | 5357 ft | 249 kts | 124° |
| 2026-05-05 19:54 | 32.19772 | -81.58421 | 4937 ft | 240 kts | 123° |
| 2026-05-05 19:54 | 32.18923 | -81.56761 | 4709 ft | 234 kts | 123° |
| 2026-05-05 19:54 | 32.18094 | -81.55146 | 4548 ft | 228 kts | 124° |
| 2026-05-05 19:55 | 32.17272 | -81.53549 | 4400 ft | 227 kts | 124° |
| 2026-05-05 19:55 | 32.16451 | -81.51955 | 4249 ft | 226 kts | 124° |
| 2026-05-05 19:55 | 32.15644 | -81.50387 | 4109 ft | 220 kts | 123° |
| 2026-05-05 19:55 | 32.14856 | -81.48856 | 3969 ft | 218 kts | 123° |
| 2026-05-05 19:56 | 32.14072 | -81.47330 | 3810 ft | 216 kts | 123° |
| 2026-05-05 19:56 | 32.13342 | -81.45824 | 3663 ft | 209 kts | 114° |
| 2026-05-05 19:56 | 32.13053 | -81.44162 | 3613 ft | 200 kts | 95° |
| 2026-05-05 19:56 | 32.13042 | -81.42531 | 3400 ft | 201 kts | 93° |
| 2026-05-05 19:57 | 32.13029 | -81.40891 | 3137 ft | 198 kts | 93° |
| 2026-05-05 19:57 | 32.13021 | -81.39821 | 3002 ft | 197 kts | 93° |
| 2026-05-05 19:57 | 32.13005 | -81.37650 | 2618 ft | 192 kts | 92° |
| 2026-05-05 19:57 | 32.12994 | -81.36090 | 2377 ft | 187 kts | 94° |
| 2026-05-05 19:58 | 32.12981 | -81.34608 | 2167 ft | 179 kts | 94° |
| 2026-05-05 19:58 | 32.12970 | -81.33127 | 1919 ft | 176 kts | 92° |
| 2026-05-05 19:58 | 32.12958 | -81.31699 | 1675 ft | 171 kts | 93° |
| 2026-05-05 19:58 | 32.12949 | -81.30359 | 1485 ft | 158 kts | 94° |
| 2026-05-05 19:59 | 32.12939 | -81.29115 | 1268 ft | 146 kts | 95° |
| 2026-05-05 19:59 | 32.12928 | -81.27932 | 1081 ft | 142 kts | 95° |
| 2026-05-05 19:59 | 32.12919 | -81.26784 | 906 ft | 139 kts | 95° |
| 2026-05-05 19:59 | 32.12918 | -81.26031 | 764 ft | 138 kts | 94° |
| 2026-05-05 20:00 | 32.12907 | -81.24907 | 599 ft | 137 kts | 96° |
| 2026-05-05 20:00 | 32.12900 | -81.23787 | 413 ft | 135 kts | 92° |
| 2026-05-05 20:00 | 32.12882 | -81.22684 | 211 ft | 135 kts | 93° |
| 2026-05-05 20:00 | 32.12874 | -81.21569 | 44 ft | 132 kts | 96° |
| 2026-05-05 20:01 | 32.12846 | -81.20581 | 63 ft | 126 kts | 95° |
| 2026-05-05 20:01 | 32.12833 | -81.19416 | 541 ft | 149 kts | 93° |
| 2026-05-05 20:01 | 32.12825 | -81.18181 | 1422 ft | 152 kts | 88° |
| 2026-05-05 20:01 | 32.13358 | -81.17068 | 2088 ft | 172 kts | 37° |
| 2026-05-05 20:02 | 32.14608 | -81.16809 | 2445 ft | 197 kts | 345° |
| 2026-05-05 20:02 | 32.15746 | -81.17782 | 2750 ft | 217 kts | 303° |
| 2026-05-05 20:02 | 32.16708 | -81.19257 | 3242 ft | 234 kts | 320° |
| 2026-05-05 20:02 | 32.18195 | -81.20080 | 3812 ft | 242 kts | 346° |
| 2026-05-05 20:03 | 32.19851 | -81.20373 | 3949 ft | 241 kts | 351° |
| 2026-05-05 20:03 | 32.21376 | -81.21083 | 3988 ft | 236 kts | 319° |
| 2026-05-05 20:03 | 32.22338 | -81.22594 | 3995 ft | 230 kts | 290° |
| 2026-05-05 20:03 | 32.22845 | -81.24388 | 4000 ft | 231 kts | 283° |
| 2026-05-05 20:04 | 32.23133 | -81.26247 | 3987 ft | 229 kts | 274° |
| 2026-05-05 20:04 | 32.23297 | -81.28111 | 3982 ft | 228 kts | 273° |
| 2026-05-05 20:04 | 32.23442 | -81.29986 | 3979 ft | 229 kts | 272° |
| 2026-05-05 20:04 | 32.23587 | -81.31859 | 3984 ft | 229 kts | 273° |
| 2026-05-05 20:05 | 32.23732 | -81.33710 | 3964 ft | 222 kts | 272° |
| 2026-05-05 20:05 | 32.23870 | -81.35503 | 3825 ft | 215 kts | 272° |
| 2026-05-05 20:05 | 32.24007 | -81.37229 | 3713 ft | 208 kts | 271° |
| 2026-05-05 20:05 | 32.24143 | -81.38872 | 3593 ft | 192 kts | 272° |
| 2026-05-05 20:06 | 32.24186 | -81.40374 | 3478 ft | 175 kts | 251° |
| 2026-05-05 20:06 | 32.23569 | -81.41512 | 3229 ft | 165 kts | 211° |
| 2026-05-05 20:06 | 32.22457 | -81.41840 | 2926 ft | 169 kts | 179° |
| 2026-05-05 20:06 | 32.21256 | -81.41736 | 2825 ft | 169 kts | 174° |
| 2026-05-05 20:07 | 32.20114 | -81.41435 | 2724 ft | 169 kts | 153° |
| 2026-05-05 20:07 | 32.19086 | -81.40743 | 2645 ft | 171 kts | 152° |
| 2026-05-05 20:07 | 32.18054 | -81.40065 | 2536 ft | 168 kts | 152° |
| 2026-05-05 20:07 | 32.17017 | -81.39401 | 2498 ft | 171 kts | 153° |
| 2026-05-05 20:08 | 32.15966 | -81.38732 | 2399 ft | 170 kts | 153° |
| 2026-05-05 20:08 | 32.14918 | -81.38065 | 2335 ft | 171 kts | 152° |
| 2026-05-05 20:08 | 32.13925 | -81.37294 | 2263 ft | 175 kts | 136° |
| 2026-05-05 20:08 | 32.13239 | -81.36141 | 2171 ft | 173 kts | 115° |
| 2026-05-05 20:09 | 32.12981 | -81.34803 | 2115 ft | 167 kts | 96° |
| 2026-05-05 20:09 | 32.12967 | -81.33417 | 1890 ft | 168 kts | 93° |
| 2026-05-05 20:09 | 32.12960 | -81.32090 | 1750 ft | 157 kts | 95° |
| 2026-05-05 20:09 | 32.12952 | -81.30821 | 1531 ft | 149 kts | 94° |
| 2026-05-05 20:10 | 32.12942 | -81.29635 | 1327 ft | 140 kts | 95° |
| 2026-05-05 20:10 | 32.12932 | -81.28472 | 1152 ft | 142 kts | 97° |
| 2026-05-05 20:10 | 32.12922 | -81.27326 | 998 ft | 138 kts | 96° |
| 2026-05-05 20:10 | 32.12922 | -81.26189 | 810 ft | 137 kts | 93° |
| 2026-05-05 20:11 | 32.12916 | -81.25071 | 635 ft | 136 kts | 95° |
| 2026-05-05 20:11 | 32.12902 | -81.23965 | 419 ft | 134 kts | 92° |
| 2026-05-05 20:11 | 32.12883 | -81.22861 | 237 ft | 134 kts | 95° |
| 2026-05-05 20:11 | 32.12875 | -81.21769 | 66 ft | 133 kts | 97° |
| 2026-05-05 20:12 | 32.12863 | -81.20790 | 43 ft | 95 kts | 90° |
| 2026-05-05 20:12 | 32.12861 | -81.20210 | 43 ft | 47 kts | 91° |
| 2026-05-05 20:12 | 32.12865 | -81.20014 | 37 ft | 10 kts | 55° |
| 2026-05-05 20:12 | 32.12943 | -81.20009 | 42 ft | 16 kts | 358° |
| 2026-05-05 20:13 | 32.13023 | -81.20061 | 46 ft | 12 kts | 287° |
| 2026-05-05 20:13 | 32.13024 | -81.20121 | 50 ft | 4 kts | 270° |
| 2026-05-05 20:13 | 32.13024 | -81.20139 | 51 ft | 1 kts | 271° |
| 2026-05-05 20:13 | 32.13025 | -81.20166 | 51 ft | 6 kts | 272° |
| 2026-05-05 20:14 | 32.13030 | -81.20243 | 52 ft | 11 kts | 275° |
| 2026-05-05 20:14 | 32.13053 | -81.20320 | 52 ft | 12 kts | 320° |
| 2026-05-05 20:14 | 32.13158 | -81.20330 | 53 ft | 16 kts | 359° |
| 2026-05-05 20:14 | 32.13271 | -81.20331 | 53 ft | 17 kts | 360° |
| 2026-05-05 20:15 | 32.13381 | -81.20332 | 54 ft | 14 kts | 359° |
| 2026-05-05 20:15 | 32.13445 | -81.20380 | 52 ft | 11 kts | 278° |
| 2026-05-05 20:15 | 32.13447 | -81.20469 | 54 ft | 10 kts | 271° |
| 2026-05-05 20:15 | 32.13448 | -81.20549 | 54 ft | 9 kts | 271° |
| 2026-05-05 20:16 | 32.13449 | -81.20620 | 54 ft | 7 kts | 271° |
| 2026-05-05 20:16 | 32.13459 | -81.20650 | 52 ft | 2 kts | 338° |
| 2026-05-05 20:16 | 32.13472 | -81.20648 | 54 ft | 3 kts | 2° |
| 2026-05-05 20:16 | 32.13492 | -81.20648 | 54 ft | 4 kts | 360° |
| 2026-05-05 20:17 | 32.13510 | -81.20647 | 54 ft | 0 kts | 1° |
| 2026-05-05 20:17 | 32.13515 | -81.20647 | 54 ft | 0 kts | 1° |